Time;durP1;ratioP1;P1;durP2;ratioP2;P2;SDS_P1;SDS_P2;PMS_P1;PMS_P2;Temp;Humidity;BMP_temperature;BMP_pressure;BME280_temperature;BME280_humidity;BME280_pressure;Samples;Min_cycle;Max_cycle;Signal;HPM_P1;HPM_P2
2023/12/22 00:00:53;;;;;;;1127.47;972.43;;;4.00;99.90;;;;;;5054361;28;20954;-82
2023/12/22 00:03:20;;;;;;;1130.57;983.40;;;4.40;99.90;;;;;;5054317;28;20451;-81
2023/12/22 00:05:47;;;;;;;1167.97;999.90;;;4.20;99.90;;;;;;5054258;28;20446;-82
2023/12/22 00:08:13;;;;;;;1151.30;999.90;;;4.40;99.90;;;;;;5053879;28;20453;-81
2023/12/22 00:10:42;;;;;;;1181.17;999.90;;;4.70;99.90;;;;;;5054460;28;20801;-81
2023/12/22 00:13:08;;;;;;;1171.57;999.90;;;4.50;99.90;;;;;;5053387;28;20451;-81
2023/12/22 00:15:35;;;;;;;1220.20;999.90;;;4.80;99.90;;;;;;5053850;28;20478;-80
2023/12/22 00:18:02;;;;;;;1242.80;999.90;;;4.90;99.90;;;;;;5053678;28;20452;-81
2023/12/22 00:20:29;;;;;;;1247.77;999.90;;;4.60;99.90;;;;;;5053593;28;20461;-80
2023/12/22 00:22:56;;;;;;;1205.60;999.90;;;4.70;99.90;;;;;;5053790;28;20454;-78
2023/12/22 00:25:23;;;;;;;1221.40;999.90;;;5.00;99.90;;;;;;5053313;28;20754;-79
2023/12/22 00:27:51;;;;;;;1373.60;999.90;;;5.20;99.90;;;;;;5053562;28;20459;-79
2023/12/22 00:30:17;;;;;;;1377.73;999.90;;;4.90;99.90;;;;;;5054089;28;20447;-78
2023/12/22 00:32:44;;;;;;;1342.60;999.90;;;4.90;99.90;;;;;;5054215;28;20848;-78
2023/12/22 00:35:11;;;;;;;1374.07;999.90;;;4.90;99.90;;;;;;5053050;28;21073;-77
2023/12/22 00:37:38;;;;;;;1374.80;999.90;;;5.00;99.90;;;;;;5054063;28;20983;-78
2023/12/22 00:40:07;;;;;;;1403.47;999.90;;;5.20;99.90;;;;;;5053884;28;20453;-78
2023/12/22 00:42:34;;;;;;;1364.57;999.90;;;5.10;99.90;;;;;;5053861;28;20931;-78
2023/12/22 00:45:03;;;;;;;1477.17;999.90;;;5.20;99.90;;;;;;5053996;28;20445;-79
2023/12/22 00:47:30;;;;;;;1479.10;999.90;;;5.20;99.90;;;;;;5053873;28;20452;-78
2023/12/22 00:49:57;;;;;;;1473.90;999.90;;;5.10;99.90;;;;;;5054694;28;20449;-82
2023/12/22 00:52:24;;;;;;;1480.30;999.90;;;5.20;99.90;;;;;;5054065;28;20457;-82
2023/12/22 00:54:51;;;;;;;1475.80;999.90;;;5.20;99.90;;;;;;5053436;28;20472;-81
2023/12/22 00:57:27;;;;;;;1337.33;999.90;;;5.30;99.90;;;;;;5053840;28;20449;-81
2023/12/22 00:59:53;;;;;;;1435.33;999.90;;;5.30;99.90;;;;;;5053691;28;20453;-82
2023/12/22 01:02:22;;;;;;;1474.70;999.90;;;5.20;99.90;;;;;;5053689;28;20447;-82
2023/12/22 01:04:48;;;;;;;1476.37;999.90;;;5.20;99.90;;;;;;5053143;28;20535;-82
2023/12/22 01:07:15;;;;;;;1480.13;999.90;;;5.20;99.90;;;;;;5052867;28;20451;-82
2023/12/22 01:09:43;;;;;;;1485.00;999.90;;;5.30;99.90;;;;;;5053165;28;20454;-82
2023/12/22 01:12:10;;;;;;;1483.37;999.90;;;5.40;99.90;;;;;;5053010;28;20963;-82
2023/12/22 01:14:38;;;;;;;1479.40;999.90;;;5.40;99.90;;;;;;5053111;28;20566;-81
2023/12/22 01:17:04;;;;;;;1483.57;999.90;;;5.20;99.90;;;;;;5053101;28;20452;-82
2023/12/22 01:19:32;;;;;;;1492.73;999.90;;;5.20;99.90;;;;;;5052820;28;20623;-82
2023/12/22 01:21:59;;;;;;;1495.47;999.90;;;5.20;99.90;;;;;;5052935;28;20458;-83
2023/12/22 01:24:26;;;;;;;1484.10;999.90;;;5.40;99.90;;;;;;5052819;28;20444;-83
2023/12/22 01:26:53;;;;;;;1476.90;999.90;;;5.40;99.90;;;;;;5053223;28;20828;-82
2023/12/22 01:29:20;;;;;;;1484.67;999.90;;;5.40;99.90;;;;;;5053114;28;20456;-82
2023/12/22 01:31:46;;;;;;;1460.20;999.90;;;5.30;99.90;;;;;;5053148;28;20448;-82
2023/12/22 01:34:13;;;;;;;1334.97;999.90;;;5.30;99.90;;;;;;5052756;28;20851;-83
2023/12/22 01:36:41;;;;;;;1468.33;999.90;;;5.40;99.90;;;;;;5053186;28;20451;-82
2023/12/22 01:39:09;;;;;;;1505.30;999.90;;;5.20;99.90;;;;;;5052927;28;20563;-82
2023/12/22 01:41:35;;;;;;;1494.40;999.90;;;5.20;99.90;;;;;;5052851;28;20993;-82
2023/12/22 01:44:02;;;;;;;1494.70;999.90;;;5.20;99.90;;;;;;5052741;28;20454;-82
2023/12/22 01:46:29;;;;;;;1496.00;999.90;;;5.10;99.90;;;;;;5052851;28;20542;-82
2023/12/22 01:48:56;;;;;;;1502.63;999.90;;;5.10;99.90;;;;;;5052579;28;20447;-81
2023/12/22 01:51:23;;;;;;;1507.10;999.90;;;5.10;99.90;;;;;;5052829;28;20547;-83
2023/12/22 01:53:52;;;;;;;1508.33;999.90;;;5.10;99.90;;;;;;5052683;28;20825;-84
2023/12/22 01:56:19;;;;;;;1512.07;999.90;;;5.00;99.90;;;;;;5053136;28;20825;-82
2023/12/22 01:58:47;;;;;;;1510.43;999.90;;;5.00;99.90;;;;;;5052934;28;20456;-82
2023/12/22 02:01:14;;;;;;;1507.70;999.90;;;5.00;99.90;;;;;;5052349;28;20455;-83
2023/12/22 02:03:41;;;;;;;1509.57;999.90;;;5.00;99.90;;;;;;5052310;28;20458;-82
2023/12/22 02:06:08;;;;;;;1506.80;999.90;;;4.90;99.90;;;;;;5052028;28;20455;-82
2023/12/22 02:08:37;;;;;;;1510.70;999.90;;;4.90;99.90;;;;;;5051636;28;20461;-82
2023/12/22 02:11:05;;;;;;;1509.03;999.90;;;4.70;99.90;;;;;;5051721;28;20494;-82
2023/12/22 02:13:32;;;;;;;1506.53;999.90;;;4.80;99.90;;;;;;5051627;28;20459;-82
2023/12/22 02:16:08;;;;;;;1504.87;999.90;;;4.80;99.90;;;;;;5051865;28;20566;-82
2023/12/22 02:18:40;;;;;;;1499.53;999.90;;;4.80;99.90;;;;;;5051503;28;20483;-82
2023/12/22 02:21:10;;;;;;;1438.33;999.90;;;5.00;99.90;;;;;;5050805;28;20462;-82
2023/12/22 02:23:38;;;;;;;1325.50;999.90;;;5.00;99.90;;;;;;5051322;28;20448;-83
2023/12/22 02:26:37;;;;;;;1437.60;999.90;;;5.20;99.90;;;;;;5051758;28;20818;-83
2023/12/22 02:29:04;;;;;;;1437.17;999.90;;;5.20;99.90;;;;;;5052013;28;20851;-81
2023/12/22 02:31:37;;;;;;;1380.60;999.90;;;5.30;99.90;;;;;;5052192;28;20455;-81
2023/12/22 02:34:08;;;;;;;1196.57;999.90;;;5.30;99.90;;;;;;5051817;28;20452;-81
2023/12/22 02:36:37;;;;;;;1317.03;999.90;;;5.20;99.90;;;;;;5052482;28;20447;-82
2023/12/22 02:39:07;;;;;;;1347.53;999.90;;;5.30;99.90;;;;;;5051750;28;20444;-83
2023/12/22 02:41:35;;;;;;;1367.87;999.90;;;5.30;99.90;;;;;;5052074;28;20451;-83
2023/12/22 02:44:02;;;;;;;1392.67;999.90;;;4.90;99.90;;;;;;5051992;28;20455;-83
2023/12/22 02:46:29;;;;;;;1411.73;999.90;;;5.00;99.90;;;;;;5052016;28;20443;-83
2023/12/22 02:48:56;;;;;;;1396.73;999.90;;;4.90;99.90;;;;;;5051757;28;20450;-83
2023/12/22 02:51:22;;;;;;;1409.23;999.90;;;4.80;99.90;;;;;;5051879;28;20447;-83
2023/12/22 02:53:49;;;;;;;1414.60;999.90;;;4.90;99.90;;;;;;5051848;28;20475;-83
2023/12/22 02:56:17;;;;;;;1421.57;999.90;;;4.80;99.90;;;;;;5052270;28;20475;-83
2023/12/22 02:58:44;;;;;;;1425.57;999.90;;;4.80;99.90;;;;;;5051496;28;20450;-82
2023/12/22 03:01:14;;;;;;;1423.50;999.90;;;4.80;99.90;;;;;;5051399;28;20471;-82
2023/12/22 03:03:40;;;;;;;1413.37;999.90;;;4.70;99.90;;;;;;5051234;28;20870;-82
2023/12/22 03:06:07;;;;;;;1419.47;999.90;;;4.70;99.90;;;;;;5051390;28;20530;-82
2023/12/22 03:08:34;;;;;;;1406.57;999.90;;;4.60;99.90;;;;;;5051776;28;20876;-83
2023/12/22 03:11:01;;;;;;;1401.03;999.90;;;4.80;99.90;;;;;;5051545;28;20541;-84
2023/12/22 03:13:29;;;;;;;1396.90;999.90;;;4.70;99.90;;;;;;5051175;28;20740;-84
2023/12/22 03:15:56;;;;;;;1406.67;999.90;;;4.60;99.90;;;;;;5051414;28;20477;-84
2023/12/22 03:18:22;;;;;;;1418.43;999.90;;;4.70;99.90;;;;;;5051220;28;20448;-84
2023/12/22 03:20:49;;;;;;;1418.63;999.90;;;4.90;99.90;;;;;;5051449;28;20447;-84
2023/12/22 03:23:16;;;;;;;1429.17;999.90;;;5.10;99.90;;;;;;5051460;28;20824;-86
2023/12/22 03:25:43;;;;;;;1438.63;999.90;;;5.30;99.90;;;;;;5051573;28;20451;-84
2023/12/22 03:28:10;;;;;;;1469.70;999.90;;;5.30;99.90;;;;;;5051471;28;20572;-85
2023/12/22 03:30:38;;;;;;;1493.13;999.90;;;5.40;99.90;;;;;;5051443;28;20454;-87
2023/12/22 03:33:04;;;;;;;1497.23;999.90;;;5.50;99.90;;;;;;5053286;28;20931;-84
2023/12/22 03:35:31;;;;;;;1513.83;999.90;;;5.60;99.90;;;;;;5055439;28;20533;-84
2023/12/22 03:37:58;;;;;;;1519.87;999.90;;;5.70;99.90;;;;;;5055622;28;20486;-84
2023/12/22 03:40:25;;;;;;;1522.23;999.90;;;5.70;99.90;;;;;;5055325;28;20457;-84
2023/12/22 03:42:51;;;;;;;1533.10;999.90;;;5.70;99.90;;;;;;5055106;28;20463;-84
2023/12/22 03:45:18;;;;;;;1550.83;999.90;;;5.80;99.90;;;;;;5055015;28;20824;-84
2023/12/22 03:47:46;;;;;;;1535.23;999.90;;;5.90;99.90;;;;;;5054890;28;20450;-85
2023/12/22 03:50:13;;;;;;;1535.73;999.90;;;5.90;99.90;;;;;;5055365;28;20806;-83
2023/12/22 03:52:40;;;;;;;1523.13;999.90;;;5.90;99.90;;;;;;5055196;28;20458;-85
2023/12/22 03:55:07;;;;;;;1529.37;999.90;;;6.00;99.90;;;;;;5054633;28;20735;-83
2023/12/22 03:57:34;;;;;;;1527.17;999.90;;;6.00;99.90;;;;;;5054703;28;20467;-83
2023/12/22 04:00:01;;;;;;;1507.73;999.90;;;6.10;99.90;;;;;;5054740;28;20454;-84
2023/12/22 04:02:28;;;;;;;1482.40;999.77;;;6.10;99.90;;;;;;5054342;28;20453;-82
2023/12/22 04:04:56;;;;;;;1485.30;996.27;;;6.00;99.90;;;;;;5054330;28;20443;-83
2023/12/22 04:07:23;;;;;;;1483.13;985.30;;;6.00;99.90;;;;;;5054080;28;20496;-82
2023/12/22 04:09:49;;;;;;;1466.43;974.77;;;6.00;99.90;;;;;;5054179;28;20448;-84
2023/12/22 04:12:16;;;;;;;1481.30;975.67;;;6.00;99.90;;;;;;5053943;28;20455;-81
2023/12/22 04:14:43;;;;;;;1486.93;987.00;;;6.10;99.90;;;;;;5054029;28;20450;-83
2023/12/22 04:17:10;;;;;;;1511.43;997.43;;;6.00;99.90;;;;;;5053851;28;20451;-82
2023/12/22 04:19:38;;;;;;;1524.50;999.90;;;6.10;99.90;;;;;;5053904;28;20454;-82
2023/12/22 04:22:06;;;;;;;1540.13;999.90;;;6.10;99.90;;;;;;5053580;28;20450;-82
2023/12/22 04:24:33;;;;;;;1545.57;999.90;;;6.10;99.90;;;;;;5053316;28;20449;-81
2023/12/22 04:26:59;;;;;;;1547.60;999.90;;;6.10;99.90;;;;;;5053371;28;20450;-83
2023/12/22 04:29:26;;;;;;;1572.60;999.90;;;6.10;99.90;;;;;;5053373;28;20451;-82
2023/12/22 04:31:53;;;;;;;1580.30;999.90;;;6.20;99.90;;;;;;5053594;28;20452;-82
2023/12/22 04:34:20;;;;;;;1584.60;999.90;;;6.20;99.90;;;;;;5053829;28;20449;-81
2023/12/22 04:36:47;;;;;;;1581.57;998.57;;;6.30;99.90;;;;;;5054053;28;20478;-82
2023/12/22 04:39:15;;;;;;;1572.97;999.90;;;6.30;99.90;;;;;;5053841;28;20502;-82
2023/12/22 04:41:42;;;;;;;1559.90;999.90;;;6.30;99.90;;;;;;5053865;28;20943;-81
2023/12/22 04:44:09;;;;;;;1552.60;999.90;;;6.40;99.90;;;;;;5053068;28;20450;-80
2023/12/22 04:46:36;;;;;;;1561.40;999.90;;;6.40;99.90;;;;;;5053972;28;20453;-82
2023/12/22 04:49:02;;;;;;;1547.00;999.90;;;6.50;99.90;;;;;;5053900;28;20794;-80
2023/12/22 04:51:29;;;;;;;1550.80;999.90;;;6.60;99.90;;;;;;5053777;28;20456;-81
2023/12/22 04:53:56;;;;;;;1538.47;999.90;;;6.60;99.90;;;;;;5053534;28;20455;-82
2023/12/22 04:56:24;;;;;;;1538.10;999.90;;;6.70;99.90;;;;;;5053724;28;20511;-81
2023/12/22 04:58:51;;;;;;;1534.30;999.90;;;6.80;99.90;;;;;;5053530;28;20456;-82
2023/12/22 05:01:19;;;;;;;1524.63;999.90;;;6.90;99.90;;;;;;5052851;28;20455;-80
2023/12/22 05:03:46;;;;;;;1518.47;999.90;;;6.90;99.90;;;;;;5051975;28;20486;-81
2023/12/22 05:06:13;;;;;;;1518.30;999.90;;;7.00;99.90;;;;;;5053176;28;20471;-81
2023/12/22 05:08:39;;;;;;;1476.17;999.90;;;7.10;99.90;;;;;;5053243;28;20457;-81
2023/12/22 05:11:06;;;;;;;1495.30;999.90;;;7.10;99.90;;;;;;5053242;28;20450;-81
2023/12/22 05:13:34;;;;;;;1491.17;999.90;;;7.10;99.90;;;;;;5053130;28;20454;-81
2023/12/22 05:16:01;;;;;;;1485.27;999.90;;;7.20;99.90;;;;;;5053313;28;20502;-82
2023/12/22 05:18:28;;;;;;;1472.70;999.90;;;7.30;99.90;;;;;;5053159;28;20450;-81
2023/12/22 05:20:55;;;;;;;1466.37;999.90;;;7.40;99.90;;;;;;5053207;28;20447;-81
2023/12/22 05:23:22;;;;;;;1484.67;999.90;;;7.50;99.90;;;;;;5052386;28;20451;-81
2023/12/22 05:25:49;;;;;;;1472.47;999.90;;;7.50;99.90;;;;;;5053174;28;20478;-83
2023/12/22 05:28:16;;;;;;;1459.50;999.90;;;7.60;99.90;;;;;;5052763;28;20461;-81
2023/12/22 05:30:44;;;;;;;1454.37;999.90;;;7.60;99.90;;;;;;5052895;28;20486;-80
2023/12/22 05:33:11;;;;;;;1450.80;999.90;;;7.60;99.90;;;;;;5052660;28;20469;-80
2023/12/22 05:35:38;;;;;;;1435.70;999.90;;;7.70;99.90;;;;;;5053011;28;20483;-81
2023/12/22 05:38:06;;;;;;;1425.50;999.90;;;7.80;99.90;;;;;;5052556;28;20443;-81
2023/12/22 05:40:34;;;;;;;1404.70;999.90;;;7.80;99.90;;;;;;5053059;28;20516;-81
2023/12/22 05:43:00;;;;;;;1409.00;999.90;;;7.80;99.90;;;;;;5052372;28;20486;-81
2023/12/22 05:45:28;;;;;;;1412.50;999.90;;;7.90;99.90;;;;;;5052581;28;20538;-82
2023/12/22 05:47:56;;;;;;;1360.47;999.90;;;7.90;99.90;;;;;;5052889;28;20454;-81
2023/12/22 05:50:23;;;;;;;1339.30;999.90;;;7.80;99.90;;;;;;5052749;28;20659;-80
2023/12/22 05:52:50;;;;;;;1343.00;999.90;;;8.00;99.90;;;;;;5052550;28;20479;-79
2023/12/22 05:55:17;;;;;;;1341.37;999.90;;;7.90;99.90;;;;;;5052203;28;20478;-80
2023/12/22 05:57:44;;;;;;;1183.70;999.90;;;7.90;99.90;;;;;;5052431;28;20464;-80
2023/12/22 06:00:12;;;;;;;1117.27;999.90;;;8.00;99.90;;;;;;5052506;28;20454;-81
2023/12/22 06:02:39;;;;;;;1123.90;999.90;;;7.90;99.90;;;;;;5052061;28;20534;-81
2023/12/22 06:05:08;;;;;;;1093.77;999.90;;;7.90;99.90;;;;;;5051612;28;20819;-80
2023/12/22 06:07:35;;;;;;;974.27;918.57;;;8.00;99.90;;;;;;5052057;28;20454;-81
2023/12/22 06:10:01;;;;;;;954.10;900.43;;;8.00;99.90;;;;;;5052157;28;20449;-79
2023/12/22 06:12:28;;;;;;;977.03;920.57;;;7.90;99.90;;;;;;5052037;28;20455;-80
2023/12/22 06:14:55;;;;;;;983.77;927.83;;;7.90;99.90;;;;;;5051547;28;20488;-80
2023/12/22 06:17:22;;;;;;;908.47;856.80;;;7.90;99.90;;;;;;5051694;28;20486;-80
2023/12/22 06:19:49;;;;;;;991.13;932.33;;;8.00;99.90;;;;;;5051685;28;20546;-79
2023/12/22 06:22:17;;;;;;;1011.10;951.17;;;7.90;99.90;;;;;;5051705;28;20455;-79
2023/12/22 06:24:44;;;;;;;968.13;911.27;;;8.00;99.90;;;;;;5051600;28;20480;-80
2023/12/22 06:27:11;;;;;;;967.30;910.17;;;8.00;99.90;;;;;;5051716;28;20954;-78
2023/12/22 06:29:39;;;;;;;961.33;905.40;;;7.90;99.90;;;;;;5052322;28;20459;-80
2023/12/22 06:32:07;;;;;;;916.17;864.07;;;8.00;99.90;;;;;;5052079;28;20440;-80
2023/12/22 06:34:34;;;;;;;869.50;820.50;;;7.90;99.90;;;;;;5051640;28;20461;-80
2023/12/22 06:37:01;;;;;;;793.90;750.47;;;7.90;99.90;;;;;;5050535;28;20486;-80
2023/12/22 06:39:29;;;;;;;663.13;627.60;;;7.90;99.90;;;;;;5052275;28;20447;-80
2023/12/22 06:41:56;;;;;;;567.03;538.20;;;7.90;99.90;;;;;;5052052;28;20482;-80
2023/12/22 06:44:22;;;;;;;403.60;383.97;;;7.80;99.90;;;;;;5051704;28;20450;-79
2023/12/22 06:46:49;;;;;;;292.03;278.33;;;7.80;99.90;;;;;;5051746;28;20451;-81
2023/12/22 06:49:16;;;;;;;255.80;243.67;;;7.70;99.90;;;;;;5052006;28;20454;-80
2023/12/22 06:51:43;;;;;;;109.70;105.57;;;7.60;97.20;;;;;;5052072;28;20451;-80
2023/12/22 06:54:10;;;;;;;75.03;72.00;;;7.50;99.90;;;;;;5051483;28;20447;-79
2023/12/22 06:56:39;;;;;;;26.20;24.70;;;7.40;99.90;;;;;;5051930;28;20479;-80
2023/12/22 06:59:07;;;;;;;13.63;12.83;;;7.40;99.90;;;;;;5051754;28;20825;-80
2023/12/22 07:01:34;;;;;;;13.33;12.03;;;7.30;99.90;;;;;;5051399;28;20963;-78
2023/12/22 07:04:05;;;;;;;22.63;21.03;;;7.30;99.90;;;;;;5051430;28;20487;-80
2023/12/22 07:06:33;;;;;;;37.00;35.30;;;7.20;99.90;;;;;;5051478;28;21033;-81
2023/12/22 07:09:31;;;;;;;65.93;62.70;;;7.20;99.90;;;;;;5054800;28;20454;-78
2023/12/22 07:12:01;;;;;;;139.00;132.97;;;7.30;99.90;;;;;;5055100;28;20587;-80
2023/12/22 07:14:27;;;;;;;372.87;361.27;;;7.30;99.90;;;;;;5055409;28;20489;-82
2023/12/22 07:16:54;;;;;;;141.73;136.73;;;7.10;99.90;;;;;;5055495;28;20475;-84
2023/12/22 07:19:22;;;;;;;438.47;423.40;;;6.70;99.90;;;;;;5055336;28;20454;-85
2023/12/22 07:21:49;;;;;;;445.30;429.97;;;6.50;99.90;;;;;;5055072;28;20541;-83
2023/12/22 07:24:16;;;;;;;510.37;491.23;;;6.20;99.90;;;;;;5055249;28;20507;-83
2023/12/22 07:26:44;;;;;;;553.80;529.20;;;6.20;99.90;;;;;;5055567;28;20450;-83
2023/12/22 07:29:12;;;;;;;607.40;575.90;;;6.20;99.90;;;;;;5055344;28;20466;-83
2023/12/22 07:31:39;;;;;;;642.47;608.67;;;6.20;99.90;;;;;;5055575;28;20472;-83
2023/12/22 07:34:05;;;;;;;741.20;696.40;;;6.20;99.90;;;;;;5055000;28;20483;-83
2023/12/22 07:36:36;;;;;;;770.20;721.83;;;6.30;99.90;;;;;;5055346;28;20484;-83
2023/12/22 07:39:03;;;;;;;794.30;744.00;;;6.20;99.90;;;;;;5055158;28;20458;-84
2023/12/22 07:41:29;;;;;;;864.53;809.17;;;6.30;99.90;;;;;;5055555;28;20458;-84
2023/12/22 07:43:56;;;;;;;873.70;815.73;;;6.30;99.90;;;;;;5055248;28;20451;-87
2023/12/22 07:46:24;;;;;;;856.63;800.17;;;6.60;99.90;;;;;;5055864;28;20450;-79
2023/12/22 07:48:51;;;;;;;839.33;784.43;;;6.80;99.90;;;;;;5053898;28;20532;-79
2023/12/22 07:51:21;;;;;;;809.20;754.13;;;7.00;99.90;;;;;;5055077;28;20458;-80
2023/12/22 07:53:48;;;;;;;866.90;808.43;;;7.00;99.90;;;;;;5054848;28;20450;-79
2023/12/22 07:56:15;;;;;;;889.20;830.73;;;7.00;99.90;;;;;;5055327;28;20483;-79
2023/12/22 07:58:42;;;;;;;867.90;810.47;;;7.00;99.90;;;;;;5054997;28;20958;-79
2023/12/22 08:01:08;;;;;;;830.00;773.63;;;7.10;99.90;;;;;;5055271;28;20825;-79
2023/12/22 08:03:38;;;;;;;862.30;804.57;;;7.10;99.90;;;;;;5052495;28;20460;-79
2023/12/22 08:06:05;;;;;;;852.07;795.13;;;7.10;99.90;;;;;;5051361;28;20455;-79
2023/12/22 08:08:33;;;;;;;879.47;819.97;;;7.00;99.90;;;;;;5054022;28;20934;-78
2023/12/22 08:11:00;;;;;;;893.60;831.53;;;7.00;99.90;;;;;;5053896;28;20509;-78
2023/12/22 08:13:27;;;;;;;914.87;852.13;;;7.00;99.90;;;;;;5053625;28;20825;-78
2023/12/22 08:15:54;;;;;;;938.30;874.07;;;7.10;99.90;;;;;;5053814;28;20461;-78
2023/12/22 08:18:23;;;;;;;943.63;879.97;;;7.20;99.90;;;;;;5053406;28;20454;-78
2023/12/22 08:20:52;;;;;;;941.47;876.67;;;7.20;99.90;;;;;;5052920;28;20450;-78
2023/12/22 08:23:19;;;;;;;930.30;866.90;;;7.30;99.90;;;;;;5053495;28;20457;-79
2023/12/22 08:25:46;;;;;;;909.77;848.03;;;7.40;99.90;;;;;;5053712;28;20447;-78
2023/12/22 08:28:12;;;;;;;931.30;868.80;;;7.40;99.90;;;;;;5053174;28;20974;-79
2023/12/22 08:30:39;;;;;;;925.93;864.50;;;7.50;99.90;;;;;;5053346;28;20506;-79
2023/12/22 08:33:06;;;;;;;908.33;847.20;;;7.50;99.90;;;;;;5053005;28;20455;-78
2023/12/22 08:35:33;;;;;;;907.23;846.80;;;7.60;99.90;;;;;;5053509;28;20455;-78
2023/12/22 08:38:02;;;;;;;890.53;830.63;;;7.60;99.90;;;;;;5045209;28;20475;-84
2023/12/22 08:40:29;;;;;;;900.90;839.83;;;7.60;99.90;;;;;;5033884;28;20952;-84
2023/12/22 08:42:59;;;;;;;894.07;833.83;;;7.70;99.90;;;;;;5033945;28;20463;-82
2023/12/22 08:45:28;;;;;;;895.83;835.23;;;7.80;99.90;;;;;;5033637;28;20463;-82
2023/12/22 08:47:55;;;;;;;892.83;832.53;;;7.80;99.90;;;;;;5033183;28;20738;-83
2023/12/22 08:50:22;;;;;;;872.93;814.07;;;7.80;99.90;;;;;;5033837;28;20815;-84
2023/12/22 08:52:49;;;;;;;880.17;819.87;;;8.00;99.90;;;;;;5034111;28;20808;-83
2023/12/22 08:55:17;;;;;;;862.30;803.50;;;8.00;99.90;;;;;;5033959;28;20944;-84
2023/12/22 08:57:44;;;;;;;860.07;801.07;;;8.10;99.90;;;;;;5034072;28;20495;-83
2023/12/22 09:00:15;;;;;;;854.23;795.40;;;8.10;99.90;;;;;;5034159;28;20543;-86
2023/12/22 09:02:42;;;;;;;868.33;806.17;;;8.20;99.90;;;;;;5033997;28;20478;-79
2023/12/22 09:05:09;;;;;;;852.10;793.73;;;8.20;99.90;;;;;;5033601;28;20808;-78
2023/12/22 09:07:36;;;;;;;844.57;788.33;;;8.30;99.90;;;;;;5033536;28;20450;-78
2023/12/22 09:10:04;;;;;;;844.27;788.17;;;8.30;99.90;;;;;;5033366;28;20459;-78
2023/12/22 09:12:32;;;;;;;840.23;786.67;;;8.30;99.90;;;;;;5033542;28;20452;-78
2023/12/22 09:14:59;;;;;;;803.85;760.45;;;8.30;99.90;;;;;;5032093;28;20464;-80
2023/12/22 09:17:27;;;;;;;804.53;759.80;;;8.40;99.90;;;;;;5033377;28;20244;-78
2023/12/22 09:19:54;;;;;;;804.93;760.47;;;8.40;99.90;;;;;;5033403;28;20460;-78
2023/12/22 09:22:22;;;;;;;783.10;740.73;;;8.50;99.90;;;;;;5033332;28;20967;-82
2023/12/22 09:24:49;;;;;;;770.70;731.03;;;8.50;99.90;;;;;;5033119;28;20452;-84
2023/12/22 09:27:16;;;;;;;763.90;725.60;;;8.60;99.90;;;;;;5033042;28;20463;-85
2023/12/22 09:29:47;;;;;;;788.00;745.57;;;8.70;99.90;;;;;;5033516;28;20471;-83
2023/12/22 09:32:14;;;;;;;780.10;738.17;;;8.70;99.90;;;;;;5033569;28;20452;-82
2023/12/22 09:34:41;;;;;;;768.57;728.30;;;8.70;99.90;;;;;;5033621;28;20483;-83
2023/12/22 09:37:08;;;;;;;774.63;733.93;;;8.80;99.90;;;;;;5033108;28;20476;-83
2023/12/22 09:39:35;;;;;;;772.53;732.03;;;8.80;99.90;;;;;;5033285;28;21093;-84
2023/12/22 09:42:02;;;;;;;785.87;742.93;;;8.80;99.90;;;;;;5032986;28;20459;-83
2023/12/22 09:44:33;;;;;;;785.53;744.00;;;8.90;99.90;;;;;;5032874;28;20466;-83
2023/12/22 09:47:05;;;;;;;798.47;755.27;;;8.90;99.90;;;;;;5032977;28;20437;-83
2023/12/22 09:49:33;;;;;;;786.93;745.40;;;9.00;99.90;;;;;;5033055;28;20451;-84
2023/12/22 09:52:02;;;;;;;778.87;738.70;;;8.90;99.90;;;;;;5032851;28;20983;-83
2023/12/22 09:54:31;;;;;;;702.50;670.07;;;9.00;99.90;;;;;;5032402;28;20452;-81
2023/12/22 09:57:00;;;;;;;710.30;677.07;;;9.00;99.90;;;;;;5032779;28;21086;-83
2023/12/22 09:59:29;;;;;;;709.57;677.23;;;9.10;99.90;;;;;;5032928;28;20448;-83
2023/12/22 10:01:57;;;;;;;632.93;607.07;;;9.10;99.90;;;;;;5032466;28;20465;-82
2023/12/22 10:04:26;;;;;;;708.77;676.63;;;9.10;99.90;;;;;;5032444;28;20540;-83
2023/12/22 10:06:54;;;;;;;690.33;660.10;;;9.10;99.90;;;;;;5032928;28;20444;-81
2023/12/22 10:09:21;;;;;;;736.67;701.87;;;9.10;99.90;;;;;;5032727;28;20448;-82
2023/12/22 10:11:53;;;;;;;727.20;692.80;;;9.00;99.90;;;;;;5032770;28;20456;-83
2023/12/22 10:14:22;;;;;;;717.30;685.17;;;9.00;99.90;;;;;;5032557;28;20468;-81
2023/12/22 10:16:50;;;;;;;755.70;718.77;;;9.00;99.90;;;;;;5032592;28;20483;-82
2023/12/22 10:19:17;;;;;;;767.27;728.70;;;9.00;99.90;;;;;;5032375;28;20451;-82
2023/12/22 10:21:45;;;;;;;786.10;744.70;;;9.00;99.90;;;;;;5032349;28;20448;-83
2023/12/22 10:24:42;;;;;;;792.07;750.63;;;9.00;99.90;;;;;;5032007;28;20961;-81
2023/12/22 10:27:12;;;;;;;815.63;769.87;;;9.00;99.90;;;;;;5032305;28;20462;-80
2023/12/22 10:29:39;;;;;;;814.17;768.33;;;9.00;99.90;;;;;;5032514;28;20457;-81
2023/12/22 10:32:07;;;;;;;816.20;770.17;;;9.10;99.90;;;;;;5032717;28;20919;-80
2023/12/22 10:34:35;;;;;;;778.30;736.53;;;9.00;99.90;;;;;;5032120;28;20880;-82
2023/12/22 10:37:04;;;;;;;825.83;776.57;;;9.00;99.90;;;;;;5032307;28;20519;-82
2023/12/22 10:39:32;;;;;;;846.97;792.83;;;8.80;99.90;;;;;;5032389;28;20450;-82
2023/12/22 10:42:00;;;;;;;843.67;788.37;;;8.70;99.90;;;;;;5031392;28;20452;-83
2023/12/22 10:44:28;;;;;;;845.20;788.60;;;8.70;99.90;;;;;;5031870;28;20551;-83
2023/12/22 10:46:55;;;;;;;849.80;792.60;;;8.70;99.90;;;;;;5032534;28;20793;-83
2023/12/22 10:49:23;;;;;;;848.63;792.50;;;8.70;99.90;;;;;;5032120;28;20451;-83
2023/12/22 10:51:50;;;;;;;845.67;787.90;;;8.70;99.90;;;;;;5032217;28;20483;-82
2023/12/22 10:54:19;;;;;;;829.47;773.53;;;8.80;99.90;;;;;;5032056;28;20534;-82
2023/12/22 10:56:46;;;;;;;834.20;778.67;;;8.80;99.90;;;;;;5031938;28;20459;-81
2023/12/22 10:59:13;;;;;;;843.80;788.10;;;8.80;99.90;;;;;;5031685;28;20963;-82
2023/12/22 11:01:40;;;;;;;835.80;781.20;;;8.90;99.90;;;;;;5032074;28;20944;-81
2023/12/22 11:04:10;;;;;;;841.53;786.87;;;8.90;99.90;;;;;;5031841;28;20448;-82
2023/12/22 11:06:38;;;;;;;835.70;781.60;;;9.00;99.90;;;;;;5032414;28;20440;-82
2023/12/22 11:09:08;;;;;;;837.30;783.27;;;9.00;99.90;;;;;;5031815;28;20498;-81
2023/12/22 11:11:39;;;;;;;837.90;784.20;;;9.10;99.90;;;;;;5031784;28;20455;-80
2023/12/22 11:14:07;;;;;;;837.20;783.80;;;9.10;99.90;;;;;;5032050;28;20450;-79
2023/12/22 11:16:35;;;;;;;846.90;793.40;;;9.10;99.90;;;;;;5032175;28;20448;-81
2023/12/22 11:19:03;;;;;;;851.17;797.77;;;9.20;99.90;;;;;;5031735;28;20483;-81
2023/12/22 11:21:30;;;;;;;847.93;795.70;;;9.20;99.90;;;;;;5031832;28;20452;-81
2023/12/22 11:23:58;;;;;;;849.30;798.17;;;9.30;99.90;;;;;;5031540;28;20454;-82
2023/12/22 11:26:26;;;;;;;831.43;783.37;;;9.30;99.90;;;;;;5032038;28;20455;-82
2023/12/22 11:28:54;;;;;;;814.27;766.73;;;9.30;99.90;;;;;;5031673;28;20456;-81
2023/12/22 11:31:21;;;;;;;799.20;752.20;;;9.30;99.90;;;;;;5031766;28;20539;-83
2023/12/22 11:33:50;;;;;;;782.30;734.80;;;9.30;99.90;;;;;;5031858;28;20449;-83
2023/12/22 11:36:18;;;;;;;789.83;741.13;;;9.30;99.90;;;;;;5031918;28;20488;-83
2023/12/22 11:38:49;;;;;;;775.73;726.53;;;9.30;99.90;;;;;;5031345;28;20511;-83
2023/12/22 11:41:25;;;;;;;785.37;735.47;;;9.20;99.90;;;;;;5031734;28;20462;-84
2023/12/22 11:43:54;;;;;;;801.37;750.00;;;9.10;99.90;;;;;;5031604;28;20448;-84
2023/12/22 11:46:22;;;;;;;803.07;751.73;;;8.90;99.90;;;;;;5031701;28;20543;-83
2023/12/22 11:48:49;;;;;;;823.00;769.73;;;8.90;99.90;;;;;;5031714;28;20448;-81
2023/12/22 11:51:18;;;;;;;825.03;771.30;;;8.90;99.90;;;;;;5031436;28;20510;-82
2023/12/22 11:53:45;;;;;;;814.83;761.40;;;8.90;99.90;;;;;;5032562;28;20462;-81
2023/12/22 11:56:13;;;;;;;830.33;775.83;;;8.90;99.90;;;;;;5035375;28;20545;-82
2023/12/22 11:58:41;;;;;;;820.90;767.80;;;9.10;99.90;;;;;;5034926;28;20503;-82
2023/12/22 12:01:11;;;;;;;820.10;767.27;;;9.20;99.90;;;;;;5035255;28;20448;-83
2023/12/22 12:03:41;;;;;;;825.30;772.93;;;9.20;99.90;;;;;;5034403;28;20459;-83
2023/12/22 12:06:14;;;;;;;823.63;771.60;;;9.30;99.90;;;;;;5035212;28;20547;-84
2023/12/22 12:08:41;;;;;;;870.13;812.63;;;9.40;99.90;;;;;;5034886;28;20458;-83
2023/12/22 12:11:08;;;;;;;874.83;818.13;;;9.40;99.90;;;;;;5035038;28;20448;-85
2023/12/22 12:13:39;;;;;;;873.20;816.37;;;9.50;99.90;;;;;;5034517;28;20463;-83
2023/12/22 12:16:08;;;;;;;881.10;822.30;;;9.60;99.90;;;;;;5034695;28;20547;-83